Schneifelwetter: Wetterstation Hallschlag, 537 m . NN
Wetterdaten: Dienstag, 10.04.2007
Datum Zeit Temp. A. Temp. 2 Feuchte A. Luftdruck Regen Wind Richtung Richtung Sonnenschein Helligkeit T Regen Taupunkt Windchill
10.04.2007 00:09 2,2 C -0,5 C 81 % 1018 hPa 0,0 l/m 0,0 km/h (0 Bft) W 270 0 min 0 lux 0,00 min -0,7 C 2,2 C
10.04.2007 00:24 1,9 C -0,5 C 81 % 1018 hPa 0,0 l/m 2,7 km/h (1 Bft) W 270 0 min 0 lux 0,00 min -1,0 C 1,9 C
10.04.2007 00:39 1,7 C -0,8 C 82 % 1018 hPa 0,0 l/m 0,0 km/h (0 Bft) W 270 0 min 0 lux 0,00 min -1,0 C 1,7 C
10.04.2007 00:54 1,4 C -1,0 C 82 % 1018 hPa 0,0 l/m 4,0 km/h (1 Bft) W 270 0 min 0 lux 0,00 min -1,3 C 1,4 C
10.04.2007 01:09 1,2 C -1,0 C 82 % 1018 hPa 0,0 l/m 2,5 km/h (1 Bft) W 270 0 min 0 lux 0,00 min -1,5 C 1,2 C
10.04.2007 01:24 1,1 C -1,1 C 82 % 1018 hPa 0,0 l/m 0,0 km/h (0 Bft) W 270 0 min 0 lux 0,00 min -1,6 C 1,1 C
10.04.2007 01:39 0,7 C -1,5 C 82 % 1018 hPa 0,0 l/m 0,1 km/h (0 Bft) W 270 0 min 0 lux 0,00 min -2,0 C 0,7 C
10.04.2007 01:54 0,5 C -1,8 C 83 % 1018 hPa 0,0 l/m 0,2 km/h (0 Bft) W 270 0 min 0 lux 0,00 min -2,0 C 0,5 C
10.04.2007 02:09 0,3 C -1,9 C 83 % 1018 hPa 0,0 l/m 0,0 km/h (0 Bft) W 270 0 min 0 lux 0,00 min -2,2 C 0,3 C
10.04.2007 02:24 0,3 C -1,4 C 84 % 1018 hPa 0,0 l/m 4,3 km/h (1 Bft) W 270 0 min 0 lux 0,00 min -2,1 C 0,3 C
10.04.2007 02:39 0,6 C -1,0 C 85 % 1018 hPa 0,0 l/m 5,0 km/h (1 Bft) W 265 0 min 0 lux 0,00 min -1,6 C 0,6 C
10.04.2007 02:54 1,0 C -1,2 C 85 % 1018 hPa 0,0 l/m 0,0 km/h (0 Bft) W 260 0 min 0 lux 0,00 min -1,2 C 1,0 C
10.04.2007 03:09 0,3 C -1,6 C 84 % 1018 hPa 0,0 l/m 0,0 km/h (0 Bft) W 260 0 min 0 lux 0,00 min -2,1 C 0,3 C
10.04.2007 03:24 -0,2 C -2,0 C 84 % 1018 hPa 0,0 l/m 0,0 km/h (0 Bft) W 260 0 min 0 lux 0,00 min -2,6 C -0,2 C
10.04.2007 03:39 -0,2 C -1,8 C 85 % 1019 hPa 0,0 l/m 2,2 km/h (1 Bft) W 260 0 min 0 lux 0,00 min -2,4 C -0,2 C
10.04.2007 03:54 -0,4 C -2,2 C 85 % 1019 hPa 0,0 l/m 0,0 km/h (0 Bft) W 260 0 min 0 lux 0,00 min -2,6 C -0,4 C
10.04.2007 04:09 -0,4 C -2,0 C 86 % 1018 hPa 0,0 l/m 0,0 km/h (0 Bft) W 260 0 min 0 lux 0,00 min -2,4 C -0,4 C
10.04.2007 04:24 -0,4 C -2,2 C 86 % 1018 hPa 0,0 l/m 0,4 km/h (0 Bft) W 260 0 min 0 lux 0,00 min -2,4 C -0,4 C
10.04.2007 04:39 -0,6 C -2,5 C 85 % 1018 hPa 0,0 l/m 3,6 km/h (1 Bft) W 260 0 min 0 lux 0,00 min -2,8 C -0,6 C
10.04.2007 04:54 -0,8 C -2,7 C 85 % 1019 hPa 0,0 l/m 3,3 km/h (1 Bft) W 260 0 min 0 lux 0,00 min -3,0 C -0,8 C
10.04.2007 05:09 -0,8 C -2,4 C 86 % 1019 hPa 0,0 l/m 3,6 km/h (1 Bft) W 260 0 min 0 lux 0,00 min -2,8 C -0,8 C
10.04.2007 05:24 -0,3 C -1,6 C 87 % 1019 hPa 0,0 l/m 4,3 km/h (1 Bft) W 265 0 min 0 lux 0,00 min -2,2 C -0,3 C
10.04.2007 05:39 0,5 C -0,9 C 88 % 1019 hPa 0,0 l/m 0,4 km/h (0 Bft) S 190 0 min 0 lux 0,00 min -1,3 C 0,5 C
10.04.2007 05:54 0,8 C -0,6 C 88 % 1019 hPa 0,0 l/m 0,0 km/h (0 Bft) S 190 0 min 0 lux 0,00 min -1,0 C 0,8 C
10.04.2007 06:09 1,1 C 0,0 C 88 % 1019 hPa 0,0 l/m 4,1 km/h (1 Bft) W 260 0 min 0 lux 0,00 min -0,7 C 1,1 C
10.04.2007 06:25 1,5 C 0,6 C 89 % 1019 hPa 0,0 l/m 0,3 km/h (0 Bft) W67.5 260 0 min 0 lux 0,00 min -0,1 C 1,5 C
10.04.2007 06:40 1,9 C 1,1 C 89 % 1019 hPa 0,0 l/m 0,1 km/h (0 Bft) S-SW22.5 200 0 min 82 lux 0,00 min 0,3 C 1,9 C
10.04.2007 06:55 2,2 C 1,4 C 89 % 1019 hPa 0,0 l/m 0,3 km/h (0 Bft) SW 220 0 min 280 lux 0,00 min 0,6 C 2,2 C
10.04.2007 07:10 2,6 C 1,9 C 89 % 1019 hPa 0,0 l/m 3,0 km/h (1 Bft) S-SW45 210 0 min 823 lux 0,00 min 1,0 C 2,6 C
10.04.2007 07:25 3,4 C 2,8 C 89 % 1019 hPa 0,0 l/m 4,4 km/h (1 Bft) S22.5 180 0 min 2,96 klux 0,00 min 1,8 C 3,4 C
10.04.2007 07:40 3,8 C 3,1 C 89 % 1019 hPa 0,0 l/m 3,3 km/h (1 Bft) S 170 0 min 3,47 klux 0,00 min 2,2 C 3,8 C
10.04.2007 07:55 4,4 C 3,8 C 89 % 1019 hPa 0,0 l/m 0,0 km/h (0 Bft) S 170 0 min 5,20 klux 0,00 min 2,7 C 4,4 C
10.04.2007 08:10 5,1 C 4,4 C 89 % 1019 hPa 0,0 l/m 0,0 km/h (0 Bft) S 170 0 min 6,00 klux 0,00 min 3,4 C 5,1 C
10.04.2007 08:25 5,6 C 5,1 C 88 % 1019 hPa 0,0 l/m 6,5 km/h (2 Bft) SW22.5 230 0 min 8,39 klux 0,00 min 3,8 C 5,5 C
10.04.2007 08:40 6,4 C 5,7 C 87 % 1020 hPa 0,0 l/m 7,9 km/h (2 Bft) W-SW22.5 240 0 min 10,4 klux 0,00 min 4,4 C 5,2 C
10.04.2007 08:55 7,2 C 6,1 C 85 % 1020 hPa 0,0 l/m 12,6 km/h (3 Bft) W22.5 260 0 min 11,9 klux 0,00 min 4,9 C 3,0 C
10.04.2007 09:10 7,5 C 6,5 C 83 % 1020 hPa 0,0 l/m 14,6 km/h (3 Bft) W-SW22.5 255 0 min 11,8 klux 0,00 min 4,8 C 2,3 C
10.04.2007 09:25 8,0 C 7,1 C 82 % 1020 hPa 0,0 l/m 13,9 km/h (3 Bft) W-SW22.5 255 0 min 12,2 klux 0,00 min 5,1 C 3,2 C
10.04.2007 09:40 8,5 C 7,6 C 81 % 1020 hPa 0,0 l/m 15,1 km/h (3 Bft) W-SW22.5 255 0 min 15,3 klux 0,00 min 5,4 C 3,3 C
10.04.2007 09:55 9,2 C 8,3 C 81 % 1020 hPa 0,0 l/m 15,1 km/h (3 Bft) W-SW22.5 255 0 min 17,0 klux 0,00 min 6,1 C 4,1 C
10.04.2007 10:10 9,9 C 9,2 C 78 % 1020 hPa 0,0 l/m 17,9 km/h (3 Bft) W-SW22.5 255 0 min 22,6 klux 0,00 min 6,2 C 3,9 C
10.04.2007 10:25 10,6 C 9,9 C 77 % 1020 hPa 0,0 l/m 18,9 km/h (3 Bft) W-SW22.5 255 0 min 23,1 klux 0,00 min 6,7 C 4,4 C
10.04.2007 10:45 11,1 C 10,3 C 75 % 1020 hPa 0,0 l/m 19,5 km/h (3 Bft) W-SW22.5 255 0 min 23,1 klux 0,00 min 6,8 C 4,9 C
10.04.2007 11:01 11,6 C 10,8 C 74 % 1020 hPa 0,0 l/m 22,6 km/h (4 Bft) W22.5 260 0 min 26,4 klux 0,00 min 7,1 C 4,6 C
10.04.2007 11:16 12,4 C 11,6 C 73 % 1020 hPa 0,0 l/m 21,8 km/h (4 Bft) W22.5 260 0 min 29,4 klux 0,00 min 7,7 C 5,9 C
10.04.2007 11:30 13,1 C 12,0 C 71 % 1020 hPa 0,0 l/m 25,3 km/h (4 Bft) W22.5 265 14 min 46,5 klux 0,00 min 8,0 C 6,0 C
10.04.2007 11:45 13,7 C 13,2 C 69 % 1020 hPa 0,0 l/m 29,4 km/h (5 Bft) W22.5 265 15 min 57,9 klux 0,00 min 8,1 C 6,0 C
10.04.2007 12:00 14,2 C 13,8 C 67 % 1021 hPa 0,0 l/m 26,3 km/h (4 Bft) W-SW45 255 15 min 66,7 klux 0,00 min 8,2 C 7,3 C
10.04.2007 12:15 14,5 C 14,0 C 65 % 1021 hPa 0,0 l/m 27,5 km/h (4 Bft) W22.5 265 15 min 48,0 klux 0,00 min 8,0 C 7,4 C
10.04.2007 12:31 14,5 C 14,4 C 64 % 1021 hPa 0,0 l/m 25,5 km/h (4 Bft) W45 280 16 min 60,0 klux 0,00 min 7,8 C 7,8 C
10.04.2007 12:45 14,7 C 15,7 C 62 % 1021 hPa 0,0 l/m 22,0 km/h (4 Bft) W45 275 14 min 64,4 klux 0,00 min 7,5 C 8,9 C
10.04.2007 13:00 14,6 C 15,2 C 62 % 1021 hPa 0,0 l/m 22,0 km/h (4 Bft) W22.5 265 15 min 54,1 klux 0,00 min 7,4 C 8,7 C
10.04.2007 13:15 13,8 C 14,8 C 64 % 1021 hPa 0,0 l/m 21,4 km/h (4 Bft) W45 265 0 min 29,7 klux 0,00 min 7,1 C 7,8 C
10.04.2007 13:30 14,1 C 14,5 C 63 % 1021 hPa 0,0 l/m 17,9 km/h (3 Bft) W45 270 0 min 29,4 klux 0,00 min 7,2 C 9,2 C
10.04.2007 13:46 14,1 C 14,3 C 64 % 1021 hPa 0,0 l/m 15,8 km/h (3 Bft) W22.5 270 0 min 26,0 klux 0,00 min 7,4 C 9,8 C
10.04.2007 14:01 14,2 C 14,4 C 63 % 1021 hPa 0,0 l/m 19,9 km/h (4 Bft) W22.5 260 0 min 29,1 klux 0,00 min 7,3 C 8,7 C
10.04.2007 14:15 14,1 C 14,0 C 62 % 1021 hPa 0,0 l/m 14,1 km/h (3 Bft) W22.5 270 0 min 19,5 klux 0,00 min 6,9 C 10,4 C
10.04.2007 14:30 14,0 C 14,3 C 63 % 1021 hPa 0,0 l/m 16,3 km/h (3 Bft) W-NW45 290 0 min 41,4 klux 0,00 min 7,1 C 9,5 C
10.04.2007 14:45 14,0 C 14,4 C 61 % 1021 hPa 0,0 l/m 17,0 km/h (3 Bft) W45 270 0 min 28,7 klux 0,00 min 6,6 C 9,3 C
10.04.2007 15:00 14,6 C 15,1 C 62 % 1021 hPa 0,0 l/m 20,2 km/h (4 Bft) W22.5 270 15 min 74,6 klux 0,00 min 7,4 C 9,2 C
10.04.2007 15:16 15,0 C 15,7 C 61 % 1021 hPa 0,0 l/m 24,6 km/h (4 Bft) W45 275 0 min 43,8 klux 0,00 min 7,5 C 8,7 C
10.04.2007 15:30 15,2 C 16,4 C 60 % 1021 hPa 0,0 l/m 21,8 km/h (4 Bft) W-NW22.5 285 14 min 47,4 klux 0,00 min 7,5 C 9,6 C
10.04.2007 15:45 14,8 C 15,8 C 59 % 1021 hPa 0,0 l/m 16,8 km/h (3 Bft) W-NW45 295 0 min 26,5 klux 0,00 min 6,9 C 10,4 C
10.04.2007 16:00 14,6 C 15,4 C 59 % 1021 hPa 0,0 l/m 16,6 km/h (3 Bft) W45 275 0 min 27,1 klux 0,00 min 6,7 C 10,2 C
10.04.2007 16:15 15,0 C 15,8 C 60 % 1021 hPa 0,0 l/m 17,0 km/h (3 Bft) W22.5 280 0 min 35,3 klux 0,00 min 7,3 C 10,6 C
10.04.2007 16:31 14,4 C 14,6 C 60 % 1021 hPa 0,0 l/m 16,2 km/h (3 Bft) W-NW45 290 0 min 18,9 klux 0,00 min 6,7 C 10,1 C
10.04.2007 16:46 13,9 C 14,0 C 62 % 1021 hPa 0,0 l/m 14,3 km/h (3 Bft) W-NW67.5 285 0 min 11,3 klux 0,00 min 6,7 C 10,1 C
10.04.2007 17:00 13,4 C 13,5 C 63 % 1021 hPa 0,0 l/m 14,2 km/h (3 Bft) W-NW45 285 0 min 17,1 klux 0,00 min 6,5 C 9,5 C
10.04.2007 17:15 13,7 C 14,0 C 64 % 1021 hPa 0,0 l/m 14,0 km/h (3 Bft) W-NW45 290 0 min 20,0 klux 0,00 min 7,0 C 10,0 C
10.04.2007 17:30 13,7 C 13,5 C 64 % 1021 hPa 0,0 l/m 13,5 km/h (3 Bft) W22.5 280 0 min 12,6 klux 0,00 min 7,0 C 10,2 C
10.04.2007 17:46 13,5 C 13,3 C 65 % 1021 hPa 0,0 l/m 13,3 km/h (3 Bft) W22.5 265 0 min 10,9 klux 0,00 min 7,1 C 10,0 C
10.04.2007 18:01 13,2 C 13,0 C 66 % 1021 hPa 0,0 l/m 12,2 km/h (2 Bft) W22.5 270 0 min 9,8 klux 0,00 min 7,0 C 10,1 C
10.04.2007 18:15 13,1 C 12,7 C 66 % 1021 hPa 0,0 l/m 10,0 km/h (2 Bft) W22.5 275 0 min 9,4 klux 0,00 min 6,9 C 11,0 C
10.04.2007 18:30 12,9 C 12,5 C 67 % 1021 hPa 0,0 l/m 7,4 km/h (2 Bft) W-NW22.5 285 0 min 6,52 klux 0,00 min 6,9 C 12,3 C
10.04.2007 18:45 12,8 C 12,4 C 67 % 1021 hPa 0,0 l/m 4,7 km/h (1 Bft) NW45 320 0 min 7,25 klux 0,00 min 6,8 C 12,8 C
10.04.2007 19:00 12,7 C 12,3 C 67 % 1021 hPa 0,0 l/m 6,4 km/h (2 Bft) N-NW22.5 330 0 min 8,19 klux 0,00 min 6,7 C 12,7 C
10.04.2007 19:16 12,6 C 12,0 C 68 % 1021 hPa 0,0 l/m 3,7 km/h (1 Bft) NW22.5 315 0 min 5,42 klux 0,00 min 6,9 C 12,6 C
10.04.2007 19:31 12,3 C 11,7 C 68 % 1021 hPa 0,0 l/m 7,2 km/h (2 Bft) NW22.5 325 0 min 4,15 klux 0,00 min 6,6 C 11,8 C
10.04.2007 19:45 12,0 C 11,3 C 69 % 1021 hPa 0,0 l/m 6,9 km/h (2 Bft) N-NW22.5 340 0 min 3,68 klux 0,00 min 6,5 C 11,7 C
10.04.2007 20:00 11,6 C 10,5 C 69 % 1021 hPa 0,0 l/m 4,2 km/h (1 Bft) W-NW 300 0 min 2,35 klux 0,00 min 6,1 C 11,6 C
10.04.2007 20:15 11,1 C 9,7 C 71 % 1021 hPa 0,0 l/m 0,0 km/h (0 Bft) W-NW 300 0 min 1,19 klux 0,00 min 6,0 C 11,1 C
10.04.2007 20:31 10,7 C 9,1 C 72 % 1021 hPa 0,0 l/m 0,0 km/h (0 Bft) W-NW 300 0 min 376 lux 0,00 min 5,9 C 10,7 C
10.04.2007 20:46 10,0 C 8,1 C 73 % 1021 hPa 0,0 l/m 0,0 km/h (0 Bft) W-NW 300 0 min 91 lux 0,00 min 5,4 C 10,0 C
10.04.2007 21:00 9,3 C 6,9 C 74 % 1021 hPa 0,0 l/m 0,1 km/h (0 Bft) W-NW 300 0 min 22 lux 0,00 min 4,9 C 9,3 C
10.04.2007 21:15 8,3 C 6,2 C 75 % 1022 hPa 0,0 l/m 0,0 km/h (0 Bft) W-NW 300 0 min 12 lux 0,00 min 4,1 C 8,3 C
10.04.2007 21:30 7,6 C 5,1 C 76 % 1022 hPa 0,0 l/m 0,0 km/h (0 Bft) W-NW 295 0 min 0 lux 0,00 min 3,6 C 7,6 C
10.04.2007 21:45 7,2 C 4,9 C 78 % 1022 hPa 0,0 l/m 0,0 km/h (0 Bft) W-NW 295 0 min 0 lux 0,00 min 3,6 C 7,2 C
10.04.2007 22:00 7,2 C 5,3 C 78 % 1022 hPa 0,0 l/m 0,0 km/h (0 Bft) W-NW 295 0 min 0 lux 0,00 min 3,6 C 7,2 C
10.04.2007 22:16 7,2 C 5,6 C 79 % 1022 hPa 0,0 l/m 0,0 km/h (0 Bft) W-NW 295 0 min 0 lux 0,00 min 3,8 C 7,2 C
10.04.2007 22:31 7,3 C 5,9 C 79 % 1022 hPa 0,0 l/m 0,0 km/h (0 Bft) W-NW 300 0 min 0 lux 0,00 min 3,9 C 7,3 C
10.04.2007 22:45 7,3 C 5,9 C 79 % 1022 hPa 0,0 l/m 0,0 km/h (0 Bft) W-NW 295 0 min 0 lux 0,00 min 3,9 C 7,3 C
10.04.2007 23:00 7,2 C 6,0 C 79 % 1022 hPa 0,0 l/m 0,0 km/h (0 Bft) W-NW 295 0 min 0 lux 0,00 min 3,8 C 7,2 C
10.04.2007 23:15 7,1 C 5,3 C 79 % 1023 hPa 0,0 l/m 0,0 km/h (0 Bft) W-NW 295 0 min 0 lux 0,00 min 3,7 C 7,1 C
10.04.2007 23:30 6,7 C 5,1 C 80 % 1023 hPa 0,0 l/m 0,0 km/h (0 Bft) W-NW 295 0 min 0 lux 0,00 min 3,5 C 6,7 C
10.04.2007 23:46 6,6 C 5,2 C 81 % 1023 hPa 0,0 l/m 0,0 km/h (0 Bft) W-NW 300 0 min 0 lux 0,00 min 3,6 C 6,6 C
10.04.2007 23:54 6,6 C 5,4 C 82 % 1023 hPa 0,0 l/m 0,0 km/h (0 Bft) W-NW 295 0 min 0 lux 0,00 min 3,8 C 6,6 C
_ Min-Zeit 04:54 04:54 15:45 00:09 - 00:09 - - - - - 04:54 04:54
Minimum _ -0,8 C -2,7 C 59 % 1018 hPa - 0,0 km/h (0 Bft) - - - - - -3,0 C -0,8 C
_ Max-Zeit 15:30 15:30 06:25 23:15 00:09 11:45 - - 12:31 15:00 00:09 12:00 18:45
Maximum _ 15,2 C 16,4 C 89 % 1023 hPa 0,0 l/m 29,4 km/h
W (5 Bft)
- - 16 min 74,6 klux 0,00 min 8,2 C 12,8 C
Durchschnitt _ 7,9 C 6,9 C 76 % 1020 hPa #0,0 l/m 8,4 km/h (2 Bft) W - #2:13 h 12,9 klux #0 min. 3,7 C 5,8 C